Map

Track Data

SID SEASON NUMBER BASIN SUBBASIN NAME ISO_TIME NATURE LAT LON WMO_WIND WMO_PRES WMO_AGENCY TRACK_TYPE DIST2LAND LANDFALL IFLAG USA_AGENCY USA_ATCF_ID USA_LAT USA_LON USA_RECORD USA_STATUS USA_WIND USA_PRES USA_SSHS USA_R34_NE USA_R34_SE USA_R34_SW USA_R34_NW USA_R50_NE USA_R50_SE USA_R50_SW USA_R50_NW USA_R64_NE USA_R64_SE USA_R64_SW USA_R64_NW USA_POCI USA_ROCI USA_RMW USA_EYE TOKYO_LAT TOKYO_LON TOKYO_GRADE TOKYO_WIND TOKYO_PRES TOKYO_R50_DIR TOKYO_R50_LONG TOKYO_R50_SHORT TOKYO_R30_DIR TOKYO_R30_LONG TOKYO_R30_SHORT TOKYO_LAND CMA_LAT CMA_LON CMA_CAT CMA_WIND CMA_PRES HKO_LAT HKO_LON HKO_CAT HKO_WIND HKO_PRES NEWDELHI_LAT NEWDELHI_LON NEWDELHI_GRADE NEWDELHI_WIND NEWDELHI_PRES NEWDELHI_CI NEWDELHI_DP NEWDELHI_POCI REUNION_LAT REUNION_LON REUNION_TYPE REUNION_WIND REUNION_PRES REUNION_TNUM REUNION_CI REUNION_RMW REUNION_R34_NE REUNION_R34_SE REUNION_R34_SW REUNION_R34_NW REUNION_R50_NE REUNION_R50_SE REUNION_R50_SW REUNION_R50_NW REUNION_R64_NE REUNION_R64_SE REUNION_R64_SW REUNION_R64_NW BOM_LAT BOM_LON BOM_TYPE BOM_WIND BOM_PRES BOM_TNUM BOM_CI BOM_RMW BOM_R34_NE BOM_R34_SE BOM_R34_SW BOM_R34_NW BOM_R50_NE BOM_R50_SE BOM_R50_SW BOM_R50_NW BOM_R64_NE BOM_R64_SE BOM_R64_SW BOM_R64_NW BOM_ROCI BOM_POCI BOM_EYE BOM_POS_METHOD BOM_PRES_METHOD NADI_LAT NADI_LON NADI_CAT NADI_WIND NADI_PRES WELLINGTON_LAT WELLINGTON_LON WELLINGTON_WIND WELLINGTON_PRES DS824_LAT DS824_LON DS824_STAGE DS824_WIND DS824_PRES TD9636_LAT TD9636_LON TD9636_STAGE TD9636_WIND TD9636_PRES TD9635_LAT TD9635_LON TD9635_WIND TD9635_PRES TD9635_ROCI NEUMANN_LAT NEUMANN_LON NEUMANN_CLASS NEUMANN_WIND NEUMANN_PRES MLC_LAT MLC_LON MLC_CLASS MLC_WIND MLC_PRES USA_GUST BOM_GUST BOM_GUST_PER REUNION_GUST REUNION_GUST_PER USA_SEAHGT USA_SEARAD_NE USA_SEARAD_SE USA_SEARAD_SW USA_SEARAD_NW STORM_SPEED STORM_DIR
1949206N18114 1949 46 WP MM IRMA 1949-07-24 18:00:00 TS 18.0000 113.500 main 318 318 __O___________ -1 18.0000 113.500 0 1004 4 65
1949206N18114 1949 46 WP MM IRMA 1949-07-24 21:00:00 TS 18.0901 113.710 main 329 329 __P___________ -1 18.0901 113.710 0 1003 4 62
1949206N18114 1949 46 WP MM IRMA 1949-07-25 00:00:00 TS 18.2000 113.900 main 342 342 __O___________ -1 18.2000 113.900 0 1003 4 53
1949206N18114 1949 46 WP MM IRMA 1949-07-25 03:00:00 TS 18.3425 114.058 main 356 352 __P___________ -1 18.3425 114.058 0 1002 4 43
1949206N18114 1949 46 WP MM IRMA 1949-07-25 06:00:00 TS 18.5000 114.200 main 358 354 __O___________ -1 18.5000 114.200 0 1002 4 41
1949206N18114 1949 46 WP MM IRMA 1949-07-25 09:00:00 TS 18.6575 114.343 main 360 360 __P___________ -1 18.6575 114.343 0 1001 4 43
1949206N18114 1949 46 WP MM IRMA 1949-07-25 12:00:00 TS 18.8000 114.500 main 378 374 __O___________ -1 18.8000 114.500 1 29 1001 4 54
1949206N18114 1949 46 WP MM IRMA 1949-07-25 15:00:00 TS 18.9000 114.693 main 379 372 __P___________ -1 18.9000 114.693 1 29 1000 4 62
1949206N18114 1949 46 WP MM IRMA 1949-07-25 18:00:00 TS 19.0000 114.900 main 374 365 __O___________ -1 19.0000 114.900 1 29 1000 5 57
1949206N18114 1949 46 WP MM IRMA 1949-07-25 21:00:00 TS 19.1500 115.100 main 367 348 __P___________ -1 19.1500 115.100 1 29 999 5 51
1949206N18114 1949 46 WP MM IRMA 1949-07-26 00:00:00 TS 19.3000 115.300 main 351 343 __O___________ -1 19.3000 115.300 1 29 998 4 56
1949206N18114 1949 46 WP MM IRMA 1949-07-26 03:00:00 TS 19.3924 115.485 main 347 343 __P___________ -1 19.3924 115.485 1 29 997 1 98
1949206N18114 1949 46 WP MM IRMA 1949-07-26 06:00:00 TS 19.2857 115.400 main 354 354 O_O______O_O__ jtwc_wp WP071949 19.0000 115.000 35 0 19.5000 115.700 1 29 997 19.0000 115.000 TC 35 19.0000 115.000 35 999 120 2 107
1949206N18114 1949 46 WP MM IRMA 1949-07-26 09:00:00 TS 19.3283 115.712 main 365 361 P_P______P_P__ WP071949 19.0904 115.525 35 0 19.6851 115.992 1 29 996 19.0904 115.525 TC 35 19.0904 115.525 35 998 120 7 80
1949206N18114 1949 46 WP MM IRMA 1949-07-26 12:00:00 TS 19.4000 116.086 main 368 361 O_O______OOO__ jtwc_wp WP071949 19.2000 116.000 35 0 19.9000 116.300 1 29 995 19.2000 116.000 TC 35 19.2000 116.000 2 35 19.2000 116.000 35 998 120 7 75
1949206N18114 1949 46 WP MM IRMA 1949-07-26 15:00:00 TS 19.5080 116.443 main 363 351 P_P______PPP__ WP071949 19.3422 116.400 35 0 20.0924 116.558 1 29 994 19.3422 116.400 TC 35 19.3339 116.468 2 35 19.3422 116.400 35 997 150 7 69
1949206N18114 1949 46 WP MM IRMA 1949-07-26 18:00:00 TS 19.6643 116.820 main 351 351 O_O______OPO__ jtwc_wp WP071949 19.5000 116.800 35 0 20.3000 116.800 1 29 994 19.5000 116.800 TC 35 19.4737 116.929 2 35 19.5000 116.800 35 997 180 8 68
1949206N18114 1949 46 WP MM IRMA 1949-07-26 21:00:00 TS 19.8179 117.270 main 356 343 P_P______PPP__ WP071949 19.6351 117.308 35 0 20.5575 117.050 1 33 993 19.6351 117.308 TC 35 19.6266 117.376 2 35 19.6351 117.308 35 996 210 9 68
1949206N18114 1949 46 WP MM IRMA 1949-07-27 00:00:00 TS 20.0000 117.700 main 347 338 O_O______OOO__ jtwc_wp WP071949 19.8000 117.800 35 0 20.8000 117.300 2 38 992 19.8000 117.800 TC 35 19.8000 117.800 2 35 19.8000 117.800 35 996 240 8 61
1949206N18114 1949 46 WP MM IRMA 1949-07-27 03:00:00 TS 20.2181 118.048 main 338 291 P_P______PPP__ WP071949 20.0422 118.165 35 0 20.9650 117.550 2 38 990 20.0422 118.165 TC 35 19.9989 118.197 2 35 20.0422 118.165 35 995 240 8 55
1949206N18114 1949 46 WP MM IRMA 1949-07-27 06:00:00 TS 20.4439 118.375 main 291 253 O_O______OPO__ jtwc_wp WP071949 20.3000 118.500 35 0 21.1000 117.800 2 38 989 20.3000 118.500 TC 35 20.2194 118.573 2 35 20.3000 118.500 35 994 240 8 57
1949206N18114 1949 46 WP MM IRMA 1949-07-27 09:00:00 TS 20.6410 118.736 main 253 206 P_P______PPP__ WP071949 20.5000 118.900 35 0 21.2499 118.043 2 38 988 20.5000 118.900 TC 35 20.4552 118.938 2 35 20.5000 118.900 35 993 270 8 60
1949206N18114 1949 46 WP MM IRMA 1949-07-27 12:00:00 TS 20.8400 119.100 main 206 167 O_O______OOO__ jtwc_wp WP071949 20.7000 119.300 35 0 21.4000 118.300 2 38 987 20.7000 119.300 TC 35 20.7000 119.300 2 35 20.7000 119.300 35 992 300 8 58
1949206N18114 1949 46 WP MM IRMA 1949-07-27 15:00:00 TS 21.0591 119.445 main 161 114 P_P______PPP__ WP071949 20.9423 119.650 35 0 21.5500 118.593 2 38 985 20.9423 119.650 TC 35 20.9183 119.684 2 36 20.9423 119.650 35 990 270 8 55
1949206N18114 1949 46 WP MM IRMA 1949-07-27 18:00:00 TS 21.2895 119.793 main 114 76 O_O______OPO__ jtwc_wp WP071949 21.2000 120.000 35 0 21.7000 118.900 2 38 984 21.2000 120.000 TC 35 21.1474 120.066 2 37 21.2000 120.000 35 989 240 8 56
1949206N18114 1949 46 WP MM IRMA 1949-07-27 21:00:00 TS 21.5130 120.170 main 68 30 P_P______PPP__ WP071949 21.4426 120.415 37 0 21.8347 119.163 2 43 983 21.4426 120.415 TC 37 21.4027 120.440 2 38 21.4426 120.415 37 987 240 8 56
1949206N18114 1949 46 WP MM IRMA 1949-07-28 00:00:00 TS 21.7600 120.540 main 23 0 O_O______OOO__ jtwc_wp WP071949 21.7000 120.800 40 0 22.0000 119.500 3 48 983 21.7000 120.800 TC 40 21.7000 120.800 2 40 21.7000 120.800 40 986 240 8 52
1949206N18114 1949 46 WP MM IRMA 1949-07-28 03:00:00 TS 22.0116 120.857 main 0 0 P_P______PPP__ WP071949 21.9622 121.051 45 0 22.1674 119.991 3 48 982 21.9622 121.051 TC 45 22.0038 121.141 2 42 21.9622 121.051 45 985 240 8 46
1949206N18114 1949 46 WP MM IRMA 1949-07-28 06:00:00 TS 22.3514 121.193 main 30 30 O_O______OPO__ jtwc_wp WP071949 22.3000 121.300 50 0 22.5000 120.600 3 48 982 22.3000 121.300 TC 50 22.3572 121.467 2 45 22.3000 121.300 50 985 240 11 41
1949206N18114 1949 46 WP MM IRMA 1949-07-28 09:00:00 TS 22.8316 121.634 main 37 32 P_P______PPP__ WP071949 22.7551 121.685 50 0 23.1106 121.329 3 48 981 22.7551 121.685 TC 50 22.7820 121.785 2 47 22.7551 121.685 50 985 240 14 37
1949206N18114 1949 46 WP MM IRMA 1949-07-28 12:00:00 TS 23.4200 122.080 main 69 65 O_O______OOO__ jtwc_wp WP071949 23.3000 122.100 50 0 23.9000 122.000 3 48 980 23.3000 122.100 TC 50 23.3000 122.100 2 50 23.3000 122.100 50 985 240 14 32
1949206N18114 1949 46 WP MM IRMA 1949-07-28 15:00:00 TS 24.0401 122.458 main 82 69 P_P______PPP__ WP071949 23.8474 122.465 50 0 24.7345 122.418 3 53 980 23.8474 122.465 TC 50 23.9239 122.476 2 50 23.8474 122.465 50 985 270 15 26
1949206N18114 1949 46 WP MM IRMA 1949-07-28 18:00:00 TS 24.7477 122.789 main 87 81 O_O______OPO__ jtwc_wp WP071949 24.5000 122.800 50 0 25.6000 122.700 3 58 980 24.5000 122.800 TC 50 24.6383 122.844 2 50 24.5000 122.800 50 986 300 16 22
1949206N18114 1949 46 WP MM IRMA 1949-07-28 21:00:00 TS 25.5507 123.114 main 129 129 P_P______PPP__ WP071949 25.3126 123.144 50 0 26.4074 122.973 3 58 980 25.3126 123.144 TC 50 25.4084 123.166 2 50 25.3126 123.144 50 986 300 17 17
1949206N18114 1949 46 WP MM IRMA 1949-07-29 00:00:00 TS 26.4000 123.360 main 210 210 O_O______OOO__ jtwc_wp WP071949 26.2000 123.400 50 0 27.2000 123.200 3 58 980 26.2000 123.400 TC 50 26.2000 123.400 2 50 26.2000 123.400 50 987 300 17 11
1949206N18114 1949 46 WP MM IRMA 1949-07-29 03:00:00 TS 27.2362 123.489 main 223 189 P_P______PPP__ WP071949 27.0724 123.503 50 0 28.0000 123.423 3 53 982 27.0724 123.503 TC 50 26.9642 123.512 2 50 27.0724 123.503 50 987 300 17 5
1949206N18114 1949 46 WP MM IRMA 1949-07-29 06:00:00 TS 28.0484 123.526 main 189 152 O_O______OPO__ jtwc_wp WP071949 27.9000 123.500 50 0 28.8000 123.600 3 48 985 27.9000 123.500 TC 50 27.7419 123.530 2 50 27.9000 123.500 50 988 300 16 2
1949206N18114 1949 46 WP MM IRMA 1949-07-29 09:00:00 TS 28.7922 123.522 main 152 145 P_P______PPP__ WP071949 28.6075 123.465 50 0 29.6150 123.730 3 43 987 28.6075 123.465 TC 50 28.5238 123.483 2 50 28.6075 123.465 50 988 270 15 359
1949206N18114 1949 46 WP MM IRMA 1949-07-29 12:00:00 TS 29.5200 123.480 main 149 149 O_O______OOO__ jtwc_wp WP071949 29.3000 123.400 50 0 30.4000 123.800 2 38 990 29.3000 123.400 TC 50 29.3000 123.400 2 50 29.3000 123.400 50 989 240 15 357
1949206N18114 1949 46 WP MM IRMA 1949-07-29 15:00:00 TS 30.2986 123.443 main 154 142 P_P______PPP__ WP071949 30.1000 123.365 50 0 31.1300 123.815 2 33 992 30.1000 123.365 TC 50 30.0632 123.306 2 48 30.1000 123.365 50 990 270 16 358
1949206N18114 1949 46 WP MM IRMA 1949-07-29 18:00:00 TS 31.0859 123.396 main 144 132 O_O______OPO__ jtwc_wp WP071949 30.9000 123.300 50 0 31.8000 123.800 1 29 995 30.9000 123.300 TC 50 30.8152 123.208 2 47 30.9000 123.300 50 991 300 15 355
1949206N18114 1949 46 WP MM IRMA 1949-07-29 21:00:00 TS 31.8318 123.288 main 132 127 P_P______PPP__ WP071949 31.6675 123.106 47 0 32.4000 123.800 1 26 997 31.6675 123.106 TC 47 31.5595 123.105 2 46 31.6251 123.171 47 992 270 14 352
1949206N18114 1949 46 WP MM IRMA 1949-07-30 00:00:00 TS 32.4615 123.185 main 151 151 O_O______OOO__ jtwc_wp WP071949 32.3000 123.000 45 0 33.0000 123.800 1 23 1000 32.3000 123.000 TC 45 32.3000 123.000 2 45 32.3000 123.000 45 993 240 11 2
1949206N18114 1949 46 WP MM IRMA 1949-07-30 03:00:00 TS 32.9091 123.323 main 180 180 P_P______P____ WP071949 32.7177 123.204 45 0 33.6750 123.800 1 1002 32.7177 123.204 TC 45 2 8 23
1949206N18114 1949 46 WP MM IRMA 1949-07-30 06:00:00 TS 33.1556 123.533 main 215 215 O_O______O____ jtwc_wp WP071949 33.0000 123.500 45 0 34.4000 123.800 0 1005 33.0000 123.500 TC 45 2 5 40
1949206N18114 1949 46 WP MM IRMA 1949-07-30 09:00:00 TS 33.2649 123.673 main 231 222 P________P____ WP071949 33.2649 123.673 42 0 0 33.2649 123.673 TC 42 2 4 33
1949206N18114 1949 46 WP MM IRMA 1949-07-30 12:00:00 TS 33.5000 123.800 main 223 215 O________O____ jtwc_wp WP071949 33.5000 123.800 40 0 33.5000 123.800 TC 40 5 22
1949206N18114 1949 46 WP MM IRMA 1949-07-30 15:00:00 TS 33.7450 123.905 main 217 214 P________P____ WP071949 33.7450 123.905 35 0 33.7450 123.905 TC 35 5 19
1949206N18114 1949 46 WP MM IRMA 1949-07-30 18:00:00 TS 34.0000 124.000 main 217 O________O____ jtwc_wp WP071949 34.0000 124.000 30 -1 34.0000 124.000 TC 30 5 18

Digital Typhoon Data and Search

About IBTrACS Database

This database is a web-friendly format of International Best Track Archive for Climate Stewardship (IBTrACS), a global best track data archive curated by NOAA dating back to 1842.

Updated: 2021-10-19